createdAt,value
2017-04-29T18:25:03.736Z,9.50
2017-04-29T18:27:31.456Z,9.50
2017-04-29T18:29:59.185Z,9.40
2017-04-29T18:32:26.913Z,9.30
2017-04-29T18:34:54.655Z,9.30
2017-04-29T18:37:22.380Z,9.20
2017-04-29T18:39:50.872Z,9.10
2017-04-29T18:42:19.368Z,9.10
2017-04-29T18:44:47.094Z,8.90
2017-04-29T18:47:14.836Z,8.90
2017-04-29T18:49:44.486Z,8.70
2017-04-29T18:52:12.247Z,8.60
2017-04-29T18:54:39.964Z,8.50
2017-04-29T18:57:08.432Z,8.50
2017-04-29T18:59:36.161Z,8.50
2017-04-29T19:02:03.879Z,8.50
2017-04-29T19:04:32.351Z,8.40
2017-04-29T19:07:01.203Z,8.40
2017-04-29T19:09:28.931Z,8.30
2017-04-29T19:11:56.702Z,8.40
2017-04-29T19:14:24.421Z,8.30
2017-04-29T19:16:52.892Z,8.30
2017-04-29T19:19:21.941Z,8.30
2017-04-29T19:21:49.734Z,8.20
2017-04-29T19:24:17.453Z,8.10
2017-04-29T19:26:46.014Z,8.10
2017-04-29T19:29:14.487Z,8.00
2017-04-29T19:31:43.020Z,7.90
2017-04-29T19:34:10.768Z,7.90
2017-04-29T19:36:38.485Z,7.90
2017-04-29T19:39:06.666Z,7.90
2017-04-29T19:41:34.389Z,7.90
2017-04-29T19:44:02.128Z,7.80
2017-04-29T19:46:30.056Z,7.80
2017-04-29T19:48:57.781Z,7.80
2017-04-29T19:51:25.512Z,7.80
2017-04-29T19:53:54.824Z,7.80
2017-04-29T19:56:22.551Z,7.80
2017-04-29T19:58:51.026Z,7.70
2017-04-29T20:01:18.815Z,7.70
2017-04-29T20:03:47.269Z,7.60
2017-04-29T20:06:15.023Z,7.60
2017-04-29T20:08:43.104Z,7.60
2017-04-29T20:11:10.831Z,7.50
2017-04-29T20:13:38.561Z,7.50
2017-04-29T20:16:06.371Z,7.50
2017-04-29T20:18:34.101Z,7.50
2017-04-29T20:21:01.847Z,7.40
2017-04-29T20:23:29.604Z,7.40
2017-04-29T20:25:58.079Z,7.40
2017-04-29T20:28:26.540Z,7.30
2017-04-29T20:30:54.293Z,7.30
2017-04-29T20:33:22.037Z,7.30
2017-04-29T20:35:49.776Z,7.30
2017-04-29T20:38:17.519Z,7.30
2017-04-29T20:40:45.256Z,7.30
2017-04-29T20:43:12.988Z,7.30
2017-04-29T20:45:40.725Z,7.20
2017-04-29T20:48:08.452Z,7.20
2017-04-29T20:50:36.195Z,7.20
2017-04-29T20:53:04.012Z,7.10
2017-04-29T20:55:31.735Z,7.10
2017-04-29T20:57:59.502Z,7.10
2017-04-29T21:00:27.269Z,7.10
2017-04-29T21:02:55.744Z,7.00
2017-04-29T21:05:23.464Z,7.00
2017-04-29T21:07:51.188Z,6.90
2017-04-29T21:10:19.656Z,6.80
2017-04-29T21:12:47.415Z,6.90
2017-04-29T21:15:15.140Z,6.80
2017-04-29T21:17:42.871Z,6.80
2017-04-29T21:20:11.632Z,6.80
2017-04-29T21:22:39.359Z,6.70
2017-04-29T21:25:07.076Z,6.70
2017-04-29T21:27:35.538Z,6.60
2017-04-29T21:30:03.264Z,6.60
2017-04-29T21:32:31.973Z,6.60
2017-04-29T21:34:59.697Z,6.60
2017-04-29T21:37:27.415Z,6.60
2017-04-29T21:39:55.143Z,6.60
2017-04-29T21:42:22.917Z,6.60
2017-04-29T21:44:50.658Z,6.50
2017-04-29T21:47:18.768Z,6.50
2017-04-29T21:49:46.488Z,6.50
2017-04-29T21:52:14.204Z,6.60
2017-04-29T21:54:41.971Z,6.60
2017-04-29T21:57:09.729Z,6.60
2017-04-29T21:59:38.584Z,6.60
2017-04-29T22:02:06.309Z,6.60
2017-04-29T22:04:34.053Z,6.70
2017-04-29T22:07:02.733Z,6.60
2017-04-29T22:09:30.457Z,6.60
2017-04-29T22:11:58.293Z,6.70
2017-04-29T22:14:26.034Z,6.60
2017-04-29T22:16:54.496Z,6.60
2017-04-29T22:19:22.378Z,6.60
2017-04-29T22:21:50.867Z,6.60
2017-04-29T22:24:19.365Z,6.50
2017-04-29T22:26:47.100Z,6.50
2017-04-29T22:29:15.572Z,6.40
2017-04-29T22:31:43.313Z,6.40
2017-04-29T22:34:11.303Z,6.40
2017-04-29T22:36:39.023Z,6.40
2017-04-29T22:39:06.749Z,6.30
2017-04-29T22:41:35.276Z,6.30
2017-04-29T22:44:03.001Z,6.30
2017-04-29T22:46:31.459Z,6.30
2017-04-29T22:48:59.186Z,6.30
2017-04-29T22:51:26.976Z,6.30
2017-04-29T22:53:54.692Z,6.20
2017-04-29T22:56:22.420Z,6.20
2017-04-29T22:58:50.896Z,6.20
2017-04-29T23:01:19.384Z,6.20
2017-04-29T23:03:47.860Z,6.20
2017-04-29T23:06:16.358Z,6.10
2017-04-29T23:08:45.123Z,6.10
2017-04-29T23:11:12.849Z,6.10
2017-04-29T23:13:40.571Z,6.10
2017-04-29T23:16:09.436Z,6.00
2017-04-29T23:18:37.164Z,6.10
2017-04-29T23:21:04.897Z,6.00
2017-04-29T23:23:32.660Z,6.00
2017-04-29T23:26:00.375Z,6.00
2017-04-29T23:28:28.141Z,6.00
2017-04-29T23:30:55.913Z,6.00
2017-04-29T23:33:23.635Z,5.90
2017-04-29T23:35:51.369Z,5.90
2017-04-29T23:38:19.976Z,5.90
2017-04-29T23:40:47.691Z,5.90
2017-04-29T23:43:15.421Z,5.90
2017-04-29T23:45:43.190Z,5.90
2017-04-29T23:48:10.913Z,5.90
2017-04-29T23:50:38.631Z,6.00
2017-04-29T23:53:07.130Z,6.00
2017-04-29T23:55:35.600Z,5.90
2017-04-29T23:58:03.334Z,6.00
